KISW

Alexander Field South Wood County Airport

Wisconsin Rapids, Wisconsin, USA
METAR KISW 230054Z AUTO 30014G19KT 10SM CLR 11/M06 A3003 RMK AO2 SLP178 T01061061 TSNO
Observed Flight Rules
Oct-23 @ 00:54 UTC (8 minutes ago) Visual Flight Rules
Wind Visibility Clouds
300° at 14 knots
 Gusting to 19 knots
10 miles
  • Clear skies
Temperatures Readings
Current 11°C / 52°F
Dewpoint -6°C / 21°F
Humidity 30%
Altimeter 30.03" Hg
Pressure 1017.8 hPa
Elevation 307
METAR KISW 230054Z AUTO 30014G19KT 10SM CLR 11/M06 A3003 RMK AO2 SLP178 T01061061 TSNO
Observed Flight Rules
Oct-23 @ 00:54 UTC
(8 minutes ago)
VFR
Wind Visibility
300° at 14 knots
 Gusting to 19 knots
10 miles
Clouds
  • Clear skies
Temperature Dewpoint
11°C / 52°F -6°C / 21°F
Humidity Altimeter Pressure
30% 30.03" Hg 1017.8 hPa